Terminal Aerodrome Forecast
Issued by NWS

Home | Current Version | Previous Version | Text Only | Print | Product List | Glossary On
Versions: 1 2 3 4 5 6 7 8 9 10 11 12 13 14 15 16 17 18 19 20
277
FTUS45 KABQ 251720
TAFLVS
TAF
KLVS 251720Z 2518/2618 25020G30KT P6SM BKN200
     FM251900 25028G40KT P6SM BKN200
     FM260200 24018G28KT P6SM SCT200
     FM260700 23014KT P6SM SCT200=

USA.gov is the U.S. government's official web portal to all federal, state and local government web resources and services.